Scroll down
FLIGHT INFORMATION
United Parcel Service (UPS)

UPS32

At Arrival Gate

KSDF
 PHNL
DATE: 2020-01-18
GATE:  -
GATE DEPARTURE: 10:00
TAKEOFF: 10:08
DATE: 2020-01-18
GATE:  -
LANDING: 19:08
GATE ARRIVAL: 19:12
FLIGHT DATA
Crew: 
Speed: 
521 kts
Altitude: 
38,035 ft
Stage Length: 
3,802.8 nm
Block Time: 
9.2 hrs
Flight Time: 
9 hrs
Fuel Used: 
199,131 lb
Cleared Route: KSDF LEENE ONMEE DOWNS APALO PXV VIH ALS TBC PGS HEC PMD GMN RZS DINTY DUETS DADIE DIALO DUSAC DRAYK DENNS PHNL
TRACK DATA
50,000 ft 1,000 kts
AIRCRAFT INFO AND CUMULATIVE STATS
Aircraft Type: 
B748F
Registration: 
SELCAL: 
MSN/LN: 
64259 / 1550
Total Flights: 
6
Total Block Time: 
40.5 hrs
Total Flight Time: 
38.9 hrs
Total Fuel Time: 
858,137 lb
DATALINK LOG | Newest first | Current as of: 2021-06-22 13:55:46
LABEL SEQUENCE CONTENT Dn/Up
QD135319:12 42.6▼ Dn
QC094619:08▼ Dn
2U4607PHNL 190153Z 03013G19KT 10SM FEW042 SCT065 26/14 A3001 RMK AO2 SLP163 T02560139▲ Up
2S4607PHNL▼ Dn
2U2524PHNL 190153Z 03013G19KT 10SM FEW042 SCT065 26/14 A3001 RMK AO2 SLP163 T02560139▲ Up
2S2524PHNL▼ Dn
QB082410:08▼ Dn
QA001410:00 241.7▼ Dn
A31556CLEARED TO PHNL VIA APALO5 APALO PXV VIH ALS TBC J128 PGS HEC PMD GMN RZS DINTY R576 DENNS MAGGI3. SQUAWK 1304.▲ Up
A31507CLEARED TO PHNL VIA APALO5 APALO PXV VIH ALS TBC J128 PGS HEC PMD GMN RZS DINTY R576 DENNS MAGGI3. SQUAWK 7613.▲ Up
2U4921KSDF 111622Z 22011KT 3SM RA BR SCT046 BKN060 OVC095 17/15 A2981 RMK AO2 PK WND 23031/1558 P0017 T01720150▲ Up
2S4921KSDF▼ Dn
Q01349[LINK ACK]▲ Up
Q04851[LINK TEST]▼ Dn


AIRCRAFT HISTORY
FLIGHT DATE FLIGHT NO. ORIGIN DESTINATION CLEARED ROUTE BLOCK TIME FLIGHT TIME FUEL USED PILOT
2020-05-11UPS6840KIAH KGPI KIAH WLLIS LOA DOLEY FUZ BATIK SPS LAA HGO DVV MBW BIL GTF SKOTT RW023.9 hrs3.6 hrs83,905 lbPete L.
2020-05-10UPS5826PANC KIAH PANC EGKAJ LIFFE OUTER CRAFT RAMMA NOEND JOH YYD NAAPP CASSL YWL YNY YXC DORSE HLN BOY FQF BGD MQP TORNN REFYN OILLL DPLAN SSTAX MPORT GUSHR RW08L6.2 hrs6 hrs136,272 lbPete L.
2020-04-27UPS8821KPHX PANC KPHX SPRKY GOALY QUAKY SNOBL CARTL LOFTS RIMMM GCN WINEN NEERO IMB ARRIE FOCHE PRYCE BKA LAIRE JOH WITTI GAYLL SLOOW SILTY ANDDI WEWWO RW07R5.5 hrs5.2 hrs122,641 lbPete L.
2020-04-12UPS5150PHNL KPHX PHNL MKK 22N55 24N45 27N35 29N30 FICKY MZB GWIRE IPL HEEDS BZA HOGGZ KPHX5.5 hrs5.2 hrs104,604 lbPete L.
2020-01-18UPS32KSDF PHNL KSDF LEENE ONMEE DOWNS APALO PXV VIH ALS TBC PGS HEC PMD GMN RZS DINTY DUETS DADIE DIALO DUSAC DRAYK DENNS PHNL9.2 hrs9 hrs199,131 lbMichael Roth
2020-01-17UPS214EDDK KSDF EDDK DK130 DK141 DK143 DK144 DK145 WYP MISGO SONEB TENLI FLEVO SPY MONIL RAVLO BODSO SUPEL ABTOS OTBED NISBI DOPEK ARTIX MOGMO MAMUL ADELU BOLBI SONEX PENIL BABRA GIGTO UNDUX SOPAX RAMOX OGTUG BAGSO DOGAL 5420N 5530N 5740N 5750N HOIST YYR YRI YQB BUF CVG KSDF10.1 hrs9.9 hrs211,584 lbMichael Roth